Time;durP1;ratioP1;P1;durP2;ratioP2;P2;SDS_P1;SDS_P2;PMS_P1;PMS_P2;Temp;Humidity;BMP_temperature;BMP_pressure;BME280_temperature;BME280_humidity;BME280_pressure;Samples;Min_cycle;Max_cycle;Signal;HPM_P1;HPM_P2
2021/05/31 00:01:27;;;;;;;31.05;19.13;;;13.40;69.70;;;;;;5084584;27;20058;-77
2021/05/31 00:03:54;;;;;;;27.55;19.83;;;13.40;69.80;;;;;;5118820;27;20095;-77
2021/05/31 00:06:20;;;;;;;28.55;19.48;;;13.40;69.80;;;;;;5135716;27;20134;-76
2021/05/31 00:08:46;;;;;;;28.58;19.88;;;13.30;69.90;;;;;;5117821;27;20117;-75
2021/05/31 00:11:12;;;;;;;28.58;20.00;;;13.30;69.90;;;;;;5118648;27;20436;-76
2021/05/31 00:13:38;;;;;;;27.27;19.67;;;13.30;70.00;;;;;;5101322;27;20329;-76
2021/05/31 00:16:04;;;;;;;26.92;19.48;;;13.20;70.00;;;;;;5080737;27;20385;-75
2021/05/31 00:18:30;;;;;;;30.17;20.63;;;13.20;70.10;;;;;;5116991;27;20376;-76
2021/05/31 00:20:56;;;;;;;34.83;21.92;;;13.20;70.20;;;;;;5101287;27;20129;-76
2021/05/31 00:23:22;;;;;;;28.73;20.23;;;13.10;70.20;;;;;;5117155;27;20069;-76
2021/05/31 00:25:47;;;;;;;24.95;18.83;;;13.10;70.30;;;;;;5131888;27;20039;-75
2021/05/31 00:28:13;;;;;;;27.48;20.38;;;13.10;70.30;;;;;;5114696;27;20038;-75
2021/05/31 00:30:40;;;;;;;30.55;20.67;;;13.00;70.40;;;;;;5097006;27;20049;-78
2021/05/31 00:33:06;;;;;;;28.15;19.90;;;13.00;70.50;;;;;;5114971;27;20039;-75
2021/05/31 00:35:32;;;;;;;30.15;20.52;;;13.00;70.50;;;;;;5096985;27;20156;-76
2021/05/31 00:37:58;;;;;;;32.28;21.65;;;13.00;70.50;;;;;;5102699;27;20046;-76
2021/05/31 00:40:24;;;;;;;32.45;21.85;;;12.90;70.60;;;;;;5118158;27;20054;-77
2021/05/31 00:42:50;;;;;;;27.17;21.02;;;12.90;70.70;;;;;;5134273;27;20058;-76
2021/05/31 00:45:16;;;;;;;28.33;20.85;;;12.90;70.70;;;;;;5117859;27;20042;-75
2021/05/31 00:47:42;;;;;;;34.33;22.02;;;12.80;70.70;;;;;;5134306;27;20494;-75
2021/05/31 00:50:09;;;;;;;27.73;20.27;;;12.80;70.80;;;;;;5101041;27;20182;-76
2021/05/31 00:52:34;;;;;;;26.70;20.55;;;12.80;70.90;;;;;;5117328;27;20057;-77
2021/05/31 00:55:00;;;;;;;30.48;21.20;;;12.80;71.00;;;;;;5117699;27;20474;-75
2021/05/31 00:57:26;;;;;;;30.77;20.90;;;12.70;71.00;;;;;;5117758;27;20039;-74
2021/05/31 00:59:52;;;;;;;32.95;22.02;;;12.70;71.10;;;;;;5116831;27;20054;-76
2021/05/31 01:02:18;;;;;;;29.70;21.23;;;12.70;71.20;;;;;;5117854;27;20046;-74
2021/05/31 01:04:44;;;;;;;33.70;22.75;;;12.60;71.30;;;;;;5117410;27;20053;-75
2021/05/31 01:07:25;;;;;;;30.67;21.65;;;12.60;71.30;;;;;;5117635;27;20449;-76
2021/05/31 01:10:03;;;;;;;32.97;21.35;;;12.60;71.40;;;;;;5152766;27;20039;-75
2021/05/31 01:12:44;;;;;;;32.50;21.77;;;12.60;71.40;;;;;;5153279;27;20498;-76
2021/05/31 01:15:19;;;;;;;33.40;22.70;;;12.50;71.50;;;;;;5153313;27;20038;-75
2021/05/31 01:18:10;;;;;;;30.10;21.50;;;12.50;71.50;;;;;;5134023;27;20050;-76
2021/05/31 01:21:02;;;;;;;28.00;20.67;;;12.50;71.60;;;;;;5100256;27;20502;-77
2021/05/31 01:23:31;;;;;;;31.70;22.27;;;12.50;71.90;;;;;;5117864;27;20078;-74
2021/05/31 01:26:02;;;;;;;37.00;23.05;;;12.40;71.60;;;;;;5100261;27;20039;-75
2021/05/31 01:28:50;;;;;;;36.75;22.67;;;12.40;71.70;;;;;;5118252;27;20051;-75
2021/05/31 01:31:18;;;;;;;33.28;22.70;;;12.40;72.10;;;;;;5117588;27;20046;-75
2021/05/31 01:33:47;;;;;;;34.53;23.20;;;12.40;71.80;;;;;;5101351;27;20050;-75
2021/05/31 01:36:13;;;;;;;33.97;23.52;;;12.30;71.70;;;;;;5100416;27;20095;-75
2021/05/31 01:38:39;;;;;;;37.30;23.10;;;12.30;71.80;;;;;;5119106;27;20046;-76
2021/05/31 01:41:05;;;;;;;31.40;23.10;;;12.30;71.90;;;;;;5104484;27;20039;-75
2021/05/31 01:43:31;;;;;;;35.15;23.00;;;12.20;72.00;;;;;;5104091;27;20145;-76
2021/05/31 01:45:57;;;;;;;26.85;20.88;;;12.30;72.20;;;;;;5120496;27;20210;-75
2021/05/31 01:48:23;;;;;;;36.10;24.35;;;12.20;72.10;;;;;;5087517;27;20054;-76
2021/05/31 01:50:49;;;;;;;34.45;24.25;;;12.20;72.10;;;;;;5120030;27;20133;-76
2021/05/31 01:53:15;;;;;;;30.65;22.50;;;12.20;72.20;;;;;;5104026;27;20117;-77
2021/05/31 01:55:40;;;;;;;39.53;23.58;;;12.20;72.20;;;;;;5103687;27;20060;-78
2021/05/31 01:58:07;;;;;;;36.30;24.05;;;12.10;72.20;;;;;;5105724;27;20053;-76
2021/05/31 02:00:33;;;;;;;34.88;24.30;;;12.10;72.30;;;;;;5105077;27;20046;-75
2021/05/31 02:03:00;;;;;;;34.58;24.25;;;12.10;72.30;;;;;;5118204;27;20040;-75
2021/05/31 02:05:26;;;;;;;41.55;25.85;;;12.10;72.40;;;;;;5098203;27;20113;-74
2021/05/31 02:07:52;;;;;;;38.13;24.38;;;12.10;72.40;;;;;;5117718;27;20115;-74
2021/05/31 02:10:18;;;;;;;39.08;24.95;;;12.10;72.50;;;;;;5135366;27;20576;-74
2021/05/31 02:12:52;;;;;;;43.97;24.08;;;12.10;72.60;;;;;;5100181;27;20089;-76
2021/05/31 02:15:24;;;;;;;34.20;24.23;;;12.10;72.80;;;;;;5118625;27;20055;-75
2021/05/31 02:18:05;;;;;;;;;;;12.10;72.60;;;;;;5104821;27;20055;-76
2021/05/31 02:20:31;;;;;;;34.47;24.05;;;12.00;73.30;;;;;;5136107;27;19927;-75
2021/05/31 02:22:58;;;;;;;34.55;23.40;;;12.00;72.60;;;;;;5120178;27;20045;-75
2021/05/31 02:25:24;;;;;;;33.25;22.90;;;12.00;72.80;;;;;;5121681;27;20046;-76
2021/05/31 02:27:50;;;;;;;28.83;22.48;;;12.00;72.80;;;;;;5120571;27;20057;-75
2021/05/31 02:30:17;;;;;;;29.45;22.75;;;12.00;73.00;;;;;;5104632;27;20455;-74
2021/05/31 02:33:10;;;;;;;33.63;23.55;;;12.00;73.00;;;;;;5121219;27;20095;-78
2021/05/31 02:35:37;;;;;;;29.23;21.55;;;12.00;73.70;;;;;;5133636;27;20134;-75
2021/05/31 02:38:03;;;;;;;27.63;21.88;;;12.00;73.20;;;;;;5137556;27;20049;-75
2021/05/31 02:40:30;;;;;;;29.13;22.15;;;12.00;73.30;;;;;;5138238;27;20122;-74
2021/05/31 02:42:57;;;;;;;28.23;20.88;;;12.00;73.30;;;;;;5137514;27;20129;-76
2021/05/31 02:45:24;;;;;;;31.38;23.27;;;12.00;73.50;;;;;;5104488;27;20121;-76
2021/05/31 02:47:51;;;;;;;29.98;22.65;;;12.00;73.60;;;;;;5121222;27;20050;-75
2021/05/31 02:50:16;;;;;;;30.77;23.20;;;12.00;73.60;;;;;;5120441;27;20047;-75
2021/05/31 02:52:43;;;;;;;29.88;21.95;;;12.00;73.70;;;;;;5121033;27;20153;-75
2021/05/31 02:55:13;;;;;;;29.85;21.40;;;12.00;73.70;;;;;;5119829;27;20038;-75
2021/05/31 02:57:39;;;;;;;30.63;22.95;;;12.00;73.80;;;;;;5104070;27;20129;-75
2021/05/31 03:00:10;;;;;;;30.30;22.70;;;12.00;73.80;;;;;;5120279;27;20119;-74
2021/05/31 03:02:36;;;;;;;28.77;21.92;;;12.00;73.90;;;;;;5121140;27;20555;-74
2021/05/31 03:05:02;;;;;;;32.78;22.15;;;12.00;73.90;;;;;;5103304;27;20046;-74
2021/05/31 03:07:28;;;;;;;29.70;22.63;;;12.00;74.00;;;;;;5120837;27;20393;-74
2021/05/31 03:09:54;;;;;;;27.58;20.35;;;12.00;74.10;;;;;;5120187;27;20134;-74
2021/05/31 03:12:21;;;;;;;27.25;21.27;;;11.90;74.10;;;;;;5120797;27;20042;-74
2021/05/31 03:14:47;;;;;;;26.05;20.70;;;12.00;74.20;;;;;;5120611;27;20043;-74
2021/05/31 03:17:14;;;;;;;27.55;20.30;;;12.00;74.20;;;;;;5103303;27;20039;-75
2021/05/31 03:19:40;;;;;;;28.15;20.95;;;12.00;74.30;;;;;;5121855;27;20474;-75
2021/05/31 03:22:05;;;;;;;24.08;18.20;;;12.00;74.40;;;;;;5120393;27;20047;-73
2021/05/31 03:24:32;;;;;;;25.42;19.55;;;12.00;74.30;;;;;;5086642;27;20077;-74
2021/05/31 03:26:58;;;;;;;24.42;18.73;;;12.00;74.40;;;;;;5120072;27;20078;-74
2021/05/31 03:29:23;;;;;;;21.52;18.58;;;11.90;74.40;;;;;;5120383;27;20035;-74
2021/05/31 03:31:49;;;;;;;24.77;19.27;;;11.90;74.40;;;;;;5119820;27;20060;-76
2021/05/31 03:34:15;;;;;;;24.98;19.67;;;11.90;74.50;;;;;;5136826;27;20470;-74
2021/05/31 03:36:41;;;;;;;22.63;18.30;;;11.90;74.60;;;;;;5120962;27;20467;-74
2021/05/31 03:39:07;;;;;;;25.80;19.60;;;11.90;74.60;;;;;;5137154;27;20134;-74
2021/05/31 03:41:33;;;;;;;22.67;17.25;;;11.90;74.70;;;;;;5120672;27;20051;-74
2021/05/31 03:43:59;;;;;;;22.83;17.60;;;11.90;74.70;;;;;;5119887;27;20466;-74
2021/05/31 03:46:24;;;;;;;21.05;17.27;;;11.90;74.70;;;;;;5102819;27;20387;-75
2021/05/31 03:48:52;;;;;;;26.13;18.50;;;11.90;74.80;;;;;;5120070;27;20046;-74
2021/05/31 03:51:21;;;;;;;22.85;18.48;;;11.90;74.80;;;;;;5085940;27;20573;-74
2021/05/31 03:53:47;;;;;;;22.80;18.20;;;11.90;75.00;;;;;;5136631;27;20051;-74
2021/05/31 03:56:12;;;;;;;23.77;18.92;;;11.90;75.00;;;;;;5118538;27;20171;-74
2021/05/31 03:58:40;;;;;;;23.33;18.55;;;11.90;75.00;;;;;;5101823;27;20062;-73
2021/05/31 04:01:07;;;;;;;24.45;18.70;;;11.90;75.10;;;;;;5118722;27;20475;-75
2021/05/31 04:03:34;;;;;;;22.98;17.83;;;11.90;75.10;;;;;;5119038;27;20043;-75
2021/05/31 04:13:54;;;;;;;23.88;17.92;;;11.90;75.20;;;;;;5141721;27;20042;-76
2021/05/31 04:16:20;;;;;;;26.30;17.67;;;11.90;75.20;;;;;;5136118;27;20046;-74
2021/05/31 04:18:46;;;;;;;22.48;16.77;;;11.90;75.30;;;;;;5102313;27;20128;-74
2021/05/31 04:21:15;;;;;;;22.15;16.90;;;11.90;75.30;;;;;;5118432;27;20121;-76
2021/05/31 04:23:41;;;;;;;21.40;16.92;;;11.90;75.50;;;;;;5119733;27;20039;-74
2021/05/31 04:26:07;;;;;;;22.50;15.85;;;11.90;75.40;;;;;;5118458;27;20045;-73
2021/05/31 04:28:33;;;;;;;23.25;18.27;;;11.90;75.60;;;;;;5102521;27;20040;-74
2021/05/31 04:30:59;;;;;;;21.42;17.38;;;11.90;75.50;;;;;;5118799;27;20070;-79
2021/05/31 04:33:25;;;;;;;20.88;16.90;;;11.90;75.60;;;;;;5154480;27;20038;-74
2021/05/31 04:35:52;;;;;;;20.63;16.40;;;11.90;75.70;;;;;;5119637;27;20047;-74
2021/05/31 04:38:20;;;;;;;23.52;16.73;;;11.90;75.70;;;;;;5135982;27;20594;-75
2021/05/31 04:40:46;;;;;;;21.95;16.50;;;12.00;75.80;;;;;;5154556;27;20046;-75
2021/05/31 04:43:18;;;;;;;23.70;17.55;;;11.90;75.80;;;;;;5120541;27;20050;-75
2021/05/31 04:45:44;;;;;;;21.35;16.33;;;12.00;75.80;;;;;;5120024;27;20493;-74
2021/05/31 04:48:10;;;;;;;20.60;16.95;;;12.00;75.80;;;;;;5101505;27;20050;-75
2021/05/31 04:50:36;;;;;;;20.10;17.17;;;12.00;75.90;;;;;;5102837;27;20042;-74
2021/05/31 04:53:02;;;;;;;19.75;15.40;;;12.00;75.90;;;;;;5118719;27;20424;-78
2021/05/31 04:55:28;;;;;;;20.95;16.35;;;12.00;75.90;;;;;;5135977;27;20479;-74
2021/05/31 04:57:54;;;;;;;20.40;16.35;;;12.00;76.00;;;;;;5118692;27;20059;-74
2021/05/31 05:00:20;;;;;;;21.48;16.65;;;12.00;76.10;;;;;;5118632;27;20395;-73
2021/05/31 05:02:46;;;;;;;19.40;15.80;;;12.00;76.00;;;;;;5115817;27;20440;-73
2021/05/31 05:05:13;;;;;;;22.08;16.17;;;12.00;75.80;;;;;;5099709;27;20421;-75
2021/05/31 05:07:45;;;;;;;20.60;16.48;;;12.10;75.80;;;;;;5102496;27;20066;-74
2021/05/31 05:10:17;;;;;;;23.98;18.30;;;12.10;75.90;;;;;;5116386;27;20047;-73
2021/05/31 05:12:43;;;;;;;25.63;17.77;;;12.10;75.80;;;;;;5084742;27;20451;-74
2021/05/31 05:15:10;;;;;;;21.63;17.35;;;12.10;75.70;;;;;;5070766;27;20078;-77
2021/05/31 05:17:35;;;;;;;22.67;17.08;;;12.10;75.90;;;;;;5087763;27;20059;-75
2021/05/31 05:20:03;;;;;;;22.60;17.63;;;12.10;76.00;;;;;;5086621;27;20064;-75
2021/05/31 05:22:29;;;;;;;23.25;17.23;;;12.10;76.00;;;;;;5109934;27;20543;-73
2021/05/31 05:24:55;;;;;;;21.60;16.98;;;12.20;75.90;;;;;;5123084;27;20055;-74
2021/05/31 05:27:21;;;;;;;25.65;17.92;;;12.20;75.90;;;;;;5113885;27;20099;-74
2021/05/31 05:29:47;;;;;;;23.08;18.05;;;12.20;75.90;;;;;;5137168;27;20546;-76
2021/05/31 05:32:12;;;;;;;23.45;17.25;;;12.20;76.00;;;;;;5126806;27;20088;-75
2021/05/31 05:34:41;;;;;;;23.92;18.38;;;12.20;76.00;;;;;;5120563;27;20061;-78
2021/05/31 05:37:08;;;;;;;22.65;17.73;;;12.30;76.10;;;;;;5124946;27;20049;-78
2021/05/31 05:49:43;;;;;;;13.23;10.10;;;13.20;76.80;;;;;;5130024;27;20355;-78
2021/05/31 05:52:09;;;;;;;15.60;11.80;;;13.50;76.00;;;;;;5132421;27;20058;-82
2021/05/31 05:54:35;;;;;;;17.95;14.35;;;13.90;75.50;;;;;;5126409;27;20487;-81
2021/05/31 05:57:01;;;;;;;17.48;13.52;;;14.00;74.60;;;;;;5126177;27;20038;-86
2021/05/31 05:59:27;;;;;;;18.67;14.02;;;14.10;74.20;;;;;;5103435;27;20059;-86
2021/05/31 06:01:53;;;;;;;17.20;13.57;;;14.10;73.90;;;;;;5121014;27;20039;-88
2021/05/31 06:04:20;;;;;;;19.85;14.75;;;14.20;73.50;;;;;;5124751;27;20106;-88
2021/05/31 06:06:53;;;;;;;16.95;13.25;;;14.20;73.10;;;;;;5121563;27;20039;-87
2021/05/31 06:09:21;;;;;;;17.98;14.65;;;14.20;73.20;;;;;;5106306;28;20240;-89
2021/05/31 06:11:47;;;;;;;19.88;14.52;;;14.20;72.80;;;;;;5090225;27;20043;-78
2021/05/31 06:14:13;;;;;;;22.38;17.55;;;14.20;73.10;;;;;;5118895;27;20047;-81
2021/05/31 06:16:39;;;;;;;23.67;17.63;;;14.10;72.50;;;;;;5116871;27;20051;-86
2021/05/31 06:19:04;;;;;;;21.92;16.60;;;13.90;72.60;;;;;;5115483;27;20043;-77
2021/05/31 06:21:30;;;;;;;23.95;18.33;;;13.80;73.00;;;;;;5116200;27;20042;-74
2021/05/31 06:23:59;;;;;;;24.95;18.00;;;13.70;73.30;;;;;;5116272;27;20511;-76
2021/05/31 06:26:25;;;;;;;23.27;17.67;;;13.60;74.40;;;;;;5116975;27;20035;-75
2021/05/31 06:28:51;;;;;;;24.48;18.65;;;13.50;74.00;;;;;;5117993;27;20067;-75
2021/05/31 06:31:19;;;;;;;23.75;17.58;;;13.50;74.40;;;;;;5100567;27;20097;-78
2021/05/31 06:33:45;;;;;;;24.08;18.60;;;13.50;74.30;;;;;;5118602;27;20471;-75
2021/05/31 06:36:11;;;;;;;26.10;18.80;;;13.40;74.30;;;;;;5118455;27;20051;-74
2021/05/31 06:38:38;;;;;;;30.88;21.55;;;13.40;74.10;;;;;;5099370;27;20055;-73
2021/05/31 06:41:04;;;;;;;24.00;18.80;;;13.40;74.50;;;;;;5134515;27;20449;-75
2021/05/31 06:43:31;;;;;;;27.73;19.58;;;13.50;74.60;;;;;;5117868;27;20067;-75
2021/05/31 06:45:58;;;;;;;24.20;18.75;;;13.50;74.70;;;;;;5100689;27;20036;-77
2021/05/31 06:48:26;;;;;;;25.75;19.75;;;13.50;74.70;;;;;;5134414;27;20043;-74
2021/05/31 06:50:53;;;;;;;24.95;18.42;;;13.50;74.70;;;;;;5117548;27;20051;-74
2021/05/31 06:53:20;;;;;;;23.33;17.98;;;13.50;74.60;;;;;;5117832;27;20111;-77
2021/05/31 06:55:45;;;;;;;26.27;19.58;;;13.50;75.00;;;;;;5117177;27;20042;-73
2021/05/31 06:58:11;;;;;;;27.55;20.35;;;13.60;74.90;;;;;;5117209;27;20046;-74
2021/05/31 07:00:37;;;;;;;28.98;19.38;;;13.60;74.80;;;;;;5134631;27;20043;-73
2021/05/31 07:03:03;;;;;;;24.33;18.83;;;13.70;74.80;;;;;;5135038;27;20031;-74
2021/05/31 07:05:29;;;;;;;24.17;18.60;;;13.70;74.80;;;;;;5117439;27;20039;-74
2021/05/31 07:07:55;;;;;;;26.10;19.73;;;13.70;74.60;;;;;;5117578;27;20444;-75
2021/05/31 07:10:26;;;;;;;28.45;19.75;;;13.80;74.70;;;;;;5135279;27;20468;-76
2021/05/31 07:12:53;;;;;;;27.13;19.47;;;13.80;74.60;;;;;;5118380;27;20073;-74
2021/05/31 07:15:20;;;;;;;24.58;19.13;;;13.80;74.40;;;;;;5117532;27;20119;-74
2021/05/31 07:17:46;;;;;;;25.80;19.80;;;13.90;74.50;;;;;;5117043;27;20043;-74
2021/05/31 07:20:12;;;;;;;26.73;19.13;;;13.90;74.40;;;;;;5116729;27;20110;-73
2021/05/31 07:22:39;;;;;;;30.15;21.60;;;14.00;74.60;;;;;;5116258;27;20054;-73
2021/05/31 07:25:06;;;;;;;28.88;20.45;;;14.00;74.60;;;;;;5115990;27;20043;-74
2021/05/31 07:27:32;;;;;;;26.20;19.75;;;14.10;74.60;;;;;;5133972;27;20121;-74
2021/05/31 07:30:02;;;;;;;26.17;20.50;;;14.20;74.80;;;;;;5117059;27;20095;-75
2021/05/31 07:32:27;;;;;;;26.98;20.10;;;14.20;74.60;;;;;;5098874;27;20047;-73
2021/05/31 07:34:54;;;;;;;25.95;19.63;;;14.30;74.40;;;;;;5133053;27;20043;-73
2021/05/31 07:37:22;;;;;;;27.50;19.95;;;14.30;74.40;;;;;;5099187;27;20100;-75
2021/05/31 07:39:48;;;;;;;25.70;19.15;;;14.40;74.10;;;;;;5099670;27;20049;-74
2021/05/31 07:42:14;;;;;;;27.38;20.50;;;14.40;73.90;;;;;;5116474;27;20052;-75
2021/05/31 07:44:58;;;;;;;24.42;19.20;;;14.50;73.70;;;;;;5133632;27;20035;-75
2021/05/31 07:47:24;;;;;;;28.48;20.63;;;14.50;73.60;;;;;;5115959;27;20039;-72
2021/05/31 07:49:49;;;;;;;28.88;21.35;;;14.60;73.50;;;;;;5098079;27;20130;-73
2021/05/31 07:52:19;;;;;;;27.45;20.33;;;14.60;73.40;;;;;;5116032;27;20039;-73
2021/05/31 07:54:48;;;;;;;28.05;21.05;;;14.70;73.40;;;;;;5116668;27;20074;-74
2021/05/31 07:57:13;;;;;;;26.75;20.35;;;14.70;73.20;;;;;;5099090;27;20071;-74
2021/05/31 07:59:40;;;;;;;30.02;21.70;;;14.90;73.20;;;;;;5118622;27;20102;-74
2021/05/31 08:02:06;;;;;;;26.33;20.20;;;14.90;73.10;;;;;;5119609;27;20078;-75
2021/05/31 08:04:32;;;;;;;27.27;19.52;;;15.00;73.10;;;;;;5118411;27;20052;-75
2021/05/31 08:07:01;;;;;;;25.23;19.30;;;15.10;72.90;;;;;;5135885;27;20501;-75
2021/05/31 08:09:26;;;;;;;25.35;18.17;;;15.10;72.90;;;;;;5119284;27;20043;-75
2021/05/31 08:11:53;;;;;;;24.63;17.23;;;15.30;72.80;;;;;;5118663;27;20175;-75
2021/05/31 08:14:19;;;;;;;21.23;16.95;;;15.40;72.60;;;;;;5119236;27;20068;-74
2021/05/31 08:16:46;;;;;;;24.92;18.77;;;15.50;72.30;;;;;;5135314;27;20056;-74
2021/05/31 08:19:13;;;;;;;26.45;19.08;;;15.60;72.20;;;;;;5101802;27;20118;-74
2021/05/31 08:21:38;;;;;;;25.77;19.13;;;15.70;72.00;;;;;;5117891;27;20042;-75
2021/05/31 08:24:05;;;;;;;24.77;18.48;;;15.70;71.70;;;;;;5118776;27;20042;-75
2021/05/31 08:26:31;;;;;;;24.77;19.30;;;15.80;71.50;;;;;;5118476;27;20046;-77
2021/05/31 08:28:57;;;;;;;26.50;18.88;;;15.90;71.50;;;;;;5118692;27;20201;-74
2021/05/31 08:31:23;;;;;;;27.63;20.58;;;16.00;71.30;;;;;;5135845;27;20050;-75
2021/05/31 08:33:49;;;;;;;28.00;20.52;;;16.10;71.10;;;;;;5118075;27;20038;-73
2021/05/31 08:36:15;;;;;;;26.35;20.55;;;16.20;71.00;;;;;;5119001;27;20038;-74
2021/05/31 08:38:41;;;;;;;24.88;19.15;;;16.30;70.80;;;;;;5117938;27;20064;-74
2021/05/31 08:41:07;;;;;;;26.80;20.95;;;16.40;70.60;;;;;;5118743;27;20051;-75
2021/05/31 08:43:33;;;;;;;25.80;19.67;;;16.40;70.40;;;;;;5102457;27;20073;-76
2021/05/31 08:45:58;;;;;;;23.45;19.10;;;16.50;70.20;;;;;;5101610;27;20439;-75
2021/05/31 08:48:24;;;;;;;25.23;19.88;;;16.50;70.10;;;;;;5118648;27;20382;-74
2021/05/31 08:50:50;;;;;;;24.50;19.45;;;16.60;69.80;;;;;;5118355;27;20110;-75
2021/05/31 08:53:16;;;;;;;23.17;19.75;;;16.70;69.80;;;;;;5101951;27;20087;-74
2021/05/31 08:55:42;;;;;;;27.20;19.45;;;16.70;69.60;;;;;;5118161;27;20035;-75
2021/05/31 08:58:09;;;;;;;26.65;20.63;;;16.90;69.50;;;;;;5118322;27;20173;-75
2021/05/31 09:00:35;;;;;;;24.85;19.95;;;16.90;69.40;;;;;;5101841;27;20050;-78
2021/05/31 09:03:06;;;;;;;24.05;19.55;;;17.00;69.40;;;;;;5101338;27;20058;-74
2021/05/31 09:05:36;;;;;;;25.40;19.60;;;17.10;69.30;;;;;;5118336;27;20047;-75
2021/05/31 09:08:09;;;;;;;22.67;18.58;;;17.20;69.30;;;;;;5134547;27;20509;-74
2021/05/31 09:10:44;;;;;;;24.85;19.70;;;17.20;69.20;;;;;;5135254;27;20126;-75
2021/05/31 09:13:11;;;;;;;23.73;18.45;;;17.30;69.10;;;;;;5117903;27;20031;-74
2021/05/31 09:15:38;;;;;;;22.58;18.02;;;17.40;69.00;;;;;;5118060;27;20049;-77
2021/05/31 09:18:05;;;;;;;22.63;18.65;;;17.50;69.00;;;;;;5101795;27;20411;-75
2021/05/31 09:20:31;;;;;;;25.00;19.02;;;17.60;69.10;;;;;;5117789;27;20543;-73
2021/05/31 09:22:57;;;;;;;24.67;19.48;;;17.70;68.70;;;;;;5117436;27;20042;-74
2021/05/31 09:25:28;;;;;;;23.52;18.30;;;17.80;68.80;;;;;;5117626;27;20402;-74
2021/05/31 09:27:54;;;;;;;25.60;19.73;;;17.90;68.90;;;;;;5153614;27;20042;-74
2021/05/31 09:30:33;;;;;;;21.25;17.88;;;17.90;68.90;;;;;;5135501;27;20034;-75
2021/05/31 09:33:00;;;;;;;21.27;18.90;;;18.00;69.40;;;;;;5118895;27;20110;-74
2021/05/31 09:35:26;;;;;;;24.23;18.90;;;18.10;69.20;;;;;;5118111;27;20125;-75
2021/05/31 09:37:52;;;;;;;21.25;17.85;;;18.20;69.10;;;;;;5100539;27;20042;-75
2021/05/31 09:40:26;;;;;;;26.58;21.40;;;18.20;68.70;;;;;;5117538;27;20043;-74
2021/05/31 09:42:53;;;;;;;23.48;20.05;;;18.30;68.60;;;;;;5118007;27;20066;-75
2021/05/31 09:45:19;;;;;;;25.65;20.48;;;18.40;68.90;;;;;;5118524;27;20067;-74
2021/05/31 09:47:45;;;;;;;22.58;19.17;;;18.50;69.00;;;;;;5117049;27;20502;-75
2021/05/31 09:50:11;;;;;;;26.30;20.60;;;18.60;68.80;;;;;;5118206;27;20138;-74
2021/05/31 09:52:40;;;;;;;24.55;18.92;;;18.70;68.70;;;;;;5100938;27;20070;-74
2021/05/31 09:55:09;;;;;;;25.05;19.25;;;18.80;68.50;;;;;;5117215;27;20042;-74
2021/05/31 09:57:35;;;;;;;24.70;19.27;;;18.90;68.40;;;;;;5135019;27;20076;-74
2021/05/31 10:00:12;;;;;;;26.13;20.02;;;19.00;68.40;;;;;;5103343;27;20459;-75
2021/05/31 10:10:38;;;;;;;23.35;19.08;;;19.50;68.20;;;;;;5105232;27;20096;-74
2021/05/31 10:13:04;;;;;;;25.52;18.92;;;19.60;68.10;;;;;;5121052;27;20047;-74
2021/05/31 10:15:35;;;;;;;25.05;18.85;;;19.80;68.10;;;;;;5120706;27;20088;-74
2021/05/31 10:18:01;;;;;;;23.08;17.95;;;20.00;68.20;;;;;;5104281;27;20089;-75
2021/05/31 10:20:29;;;;;;;23.77;18.85;;;20.20;68.00;;;;;;5121256;27;20039;-75
2021/05/31 10:22:56;;;;;;;21.63;18.10;;;20.30;67.80;;;;;;5103460;27;20046;-75
2021/05/31 10:25:25;;;;;;;22.15;17.45;;;20.50;67.60;;;;;;5086962;27;20481;-74
2021/05/31 10:27:53;;;;;;;23.02;17.45;;;20.70;67.50;;;;;;5120082;27;20118;-78
2021/05/31 10:30:20;;;;;;;20.60;17.25;;;20.90;67.20;;;;;;5087600;27;20053;-74
2021/05/31 10:32:50;;;;;;;21.02;17.23;;;21.10;66.90;;;;;;5103954;27;20057;-74
2021/05/31 10:35:21;;;;;;;20.80;16.77;;;21.30;66.40;;;;;;5103922;27;20061;-74
2021/05/31 10:37:55;;;;;;;19.08;16.17;;;21.50;65.40;;;;;;5137555;27;20068;-76
2021/05/31 10:40:21;;;;;;;18.75;16.30;;;21.60;65.10;;;;;;5099074;27;20442;-77
2021/05/31 10:42:54;;;;;;;17.65;14.45;;;21.80;64.90;;;;;;5106327;27;20100;-76
2021/05/31 10:45:24;;;;;;;21.10;13.93;;;21.80;62.50;;;;;;5125544;27;20035;-74
2021/05/31 10:48:21;;;;;;;18.80;12.77;;;21.90;60.60;;;;;;5132854;27;20043;-78
2021/05/31 10:51:00;;;;;;;17.55;12.05;;;21.90;57.50;;;;;;5109711;27;20283;-73
2021/05/31 10:53:35;;;;;;;14.93;12.57;;;21.90;57.80;;;;;;5135150;27;20035;-79
2021/05/31 10:56:20;;;;;;;20.88;12.95;;;22.00;58.00;;;;;;5104495;27;20055;-84
2021/05/31 10:58:48;;;;;;;16.95;12.23;;;22.10;56.60;;;;;;5161641;27;20129;-83
2021/05/31 11:01:26;;;;;;;14.55;13.05;;;22.20;58.40;;;;;;5126014;27;20053;-81
2021/05/31 11:04:01;;;;;;;17.15;12.00;;;22.40;56.20;;;;;;5152094;27;20039;-87
2021/05/31 11:06:29;;;;;;;18.30;13.88;;;22.60;56.50;;;;;;5127618;27;20041;-80
2021/05/31 11:08:57;;;;;;;14.50;12.77;;;22.70;56.50;;;;;;5112687;27;20056;-85
2021/05/31 11:11:49;;;;;;;17.20;13.45;;;22.90;56.00;;;;;;5110753;27;20411;-83
2021/05/31 11:14:17;;;;;;;14.80;12.95;;;23.10;55.10;;;;;;5120489;27;20043;-82
2021/05/31 11:16:56;;;;;;;14.57;12.07;;;23.20;55.10;;;;;;5137256;27;20402;-76
2021/05/31 11:19:45;;;;;;;15.90;10.98;;;23.40;52.80;;;;;;5131427;27;20054;-77
2021/05/31 11:22:22;;;;;;;12.35;10.25;;;23.50;51.20;;;;;;5124033;27;20031;-79
2021/05/31 11:24:55;;;;;;;13.18;9.27;;;23.60;51.30;;;;;;5113157;27;20041;-78
2021/05/31 11:27:25;;;;;;;12.82;9.95;;;23.80;51.10;;;;;;5134982;27;20042;-79
2021/05/31 11:29:51;;;;;;;11.98;7.97;;;24.00;50.70;;;;;;5107544;27;20381;-78
2021/05/31 11:32:18;;;;;;;14.93;8.35;;;24.20;49.90;;;;;;5122804;27;20046;-77
2021/05/31 11:34:52;;;;;;;12.07;8.02;;;24.30;48.10;;;;;;5105158;27;20043;-78
2021/05/31 11:37:28;;;;;;;11.48;9.02;;;24.50;46.90;;;;;;5104515;27;20099;-78
2021/05/31 11:39:54;;;;;;;10.07;8.63;;;24.70;46.70;;;;;;5089129;27;20050;-78
2021/05/31 11:42:20;;;;;;;10.85;8.75;;;24.90;46.50;;;;;;5087334;27;20039;-77
2021/05/31 11:44:50;;;;;;;9.23;7.78;;;25.10;46.10;;;;;;5100070;27;20061;-77
2021/05/31 11:47:20;;;;;;;9.45;7.50;;;25.30;44.40;;;;;;5133892;27;20046;-75
2021/05/31 11:49:46;;;;;;;8.05;6.97;;;25.40;42.80;;;;;;5112757;27;20074;-77
2021/05/31 11:52:12;;;;;;;10.35;7.75;;;25.60;43.10;;;;;;5100409;27;20039;-78
2021/05/31 11:54:39;;;;;;;9.25;8.23;;;25.70;43.00;;;;;;5126355;27;20042;-77
2021/05/31 11:57:06;;;;;;;12.35;8.65;;;25.80;41.60;;;;;;5126397;27;20066;-78
2021/05/31 11:59:36;;;;;;;10.82;9.23;;;25.90;41.50;;;;;;5126763;27;20043;-77
2021/05/31 12:02:05;;;;;;;13.13;10.05;;;26.00;42.20;;;;;;5105792;27;20043;-79
2021/05/31 12:04:31;;;;;;;11.90;9.85;;;26.00;42.00;;;;;;5089263;27;20035;-81
2021/05/31 12:07:01;;;;;;;15.77;10.45;;;26.20;41.90;;;;;;5080830;27;20514;-77
2021/05/31 12:09:27;;;;;;;13.07;10.15;;;26.20;41.50;;;;;;5105315;27;20058;-80
2021/05/31 12:11:53;;;;;;;13.93;10.45;;;26.30;41.40;;;;;;5106997;27;20056;-75
2021/05/31 12:14:20;;;;;;;14.18;10.45;;;26.40;41.80;;;;;;5104615;27;20089;-76
2021/05/31 12:16:53;;;;;;;13.45;10.85;;;26.40;41.60;;;;;;5105931;27;20053;-76
2021/05/31 12:19:19;;;;;;;13.82;11.63;;;26.50;41.10;;;;;;5128350;27;20043;-77
2021/05/31 12:21:45;;;;;;;16.45;10.63;;;26.60;41.40;;;;;;5105703;27;20043;-77
2021/05/31 12:24:11;;;;;;;14.93;10.85;;;26.70;41.10;;;;;;5105318;27;20039;-79
2021/05/31 12:26:40;;;;;;;16.10;11.73;;;26.70;40.80;;;;;;5089225;27;20399;-77
2021/05/31 12:29:12;;;;;;;16.20;10.95;;;26.80;40.70;;;;;;5105900;27;20043;-82
2021/05/31 12:31:38;;;;;;;15.45;10.77;;;26.90;40.20;;;;;;5105226;27;20086;-78
2021/05/31 12:34:03;;;;;;;15.63;11.05;;;27.00;40.30;;;;;;5105160;27;20046;-81
2021/05/31 12:36:30;;;;;;;15.50;10.75;;;27.10;40.40;;;;;;5105438;27;20364;-79
2021/05/31 12:38:57;;;;;;;14.10;10.95;;;27.10;40.30;;;;;;5120083;27;20054;-78
2021/05/31 12:41:24;;;;;;;15.07;11.88;;;27.10;40.00;;;;;;5125892;27;20094;-77
2021/05/31 12:44:06;;;;;;;15.10;12.43;;;27.20;39.90;;;;;;5107747;27;20042;-77
2021/05/31 12:46:40;;;;;;;16.65;11.15;;;27.20;39.10;;;;;;5109397;27;20092;-77
2021/05/31 12:49:06;;;;;;;13.95;11.18;;;27.20;39.10;;;;;;5125413;27;20054;-79
2021/05/31 12:51:32;;;;;;;14.27;11.30;;;27.30;39.60;;;;;;5108518;27;20076;-77
2021/05/31 12:53:59;;;;;;;14.30;10.70;;;27.30;39.60;;;;;;5109184;27;20043;-77
2021/05/31 12:56:36;;;;;;;13.73;11.25;;;27.40;39.40;;;;;;5109200;27;20035;-79
2021/05/31 12:59:06;;;;;;;12.73;9.32;;;27.50;39.10;;;;;;5101876;27;20388;-78